Time;durP1;ratioP1;P1;durP2;ratioP2;P2;SDS_P1;SDS_P2;PMS_P1;PMS_P2;Temp;Humidity;BMP_temperature;BMP_pressure;BME280_temperature;BME280_humidity;BME280_pressure;Samples;Min_cycle;Max_cycle;Signal;HPM_P1;HPM_P2
2022/09/04 00:00:24;;;;;;;3.85;2.55;;;23.70;70.80;;;;;;10812025;27;20051;-74
2022/09/04 00:06:37;;;;;;;6.30;3.27;;;23.60;70.80;;;;;;10874823;32;20058;-74
2022/09/04 00:13:10;;;;;;;5.18;2.72;;;23.60;70.90;;;;;;10863190;32;20340;-74
2022/09/04 00:19:27;;;;;;;3.70;2.05;;;23.60;71.00;;;;;;10863168;32;20035;-74
2022/09/04 00:26:01;;;;;;;3.05;2.12;;;23.60;71.10;;;;;;10850082;32;20029;-73
2022/09/04 00:32:17;;;;;;;6.95;2.70;;;23.60;70.90;;;;;;10787850;33;20085;-74
2022/09/04 00:38:40;;;;;;;2.95;2.00;;;23.60;70.90;;;;;;10793907;33;20020;-74
2022/09/04 00:45:20;;;;;;;2.85;2.15;;;23.60;70.90;;;;;;10793570;33;20040;-74
2022/09/04 00:52:24;;;;;;;8.70;3.20;;;23.60;71.10;;;;;;10903603;32;20424;-73
2022/09/04 00:58:47;;;;;;;3.72;2.62;;;23.50;71.00;;;;;;10895850;32;20057;-74
2022/09/04 01:05:16;;;;;;;5.47;2.53;;;23.30;71.20;;;;;;10906452;32;20066;-73
2022/09/04 01:11:38;;;;;;;3.47;2.83;;;23.30;71.30;;;;;;10906283;32;20424;-74
2022/09/04 01:17:40;;;;;;;6.15;3.72;;;23.30;71.30;;;;;;10906004;32;20427;-74
2022/09/04 01:24:19;;;;;;;3.92;2.67;;;23.30;71.20;;;;;;10903105;32;20031;-74
2022/09/04 01:30:22;;;;;;;;;;;23.30;71.20;;;;;;10792771;33;20308;-74
2022/09/04 01:36:34;;;;;;;3.90;2.70;;;23.10;71.30;;;;;;10842594;32;19953;-74
2022/09/04 01:42:54;;;;;;;3.78;3.17;;;23.10;71.70;;;;;;10791976;33;20388;-74
2022/09/04 01:49:25;;;;;;;5.75;3.67;;;23.00;72.30;;;;;;10791300;33;20438;-74
2022/09/04 01:55:54;;;;;;;4.05;2.85;;;23.00;72.20;;;;;;10791654;33;20024;-73
2022/09/04 02:02:12;;;;;;;4.82;3.55;;;22.80;72.20;;;;;;10787277;33;20028;-74
2022/09/04 02:08:34;;;;;;;4.82;3.00;;;22.70;72.40;;;;;;10841877;32;20051;-74
2022/09/04 02:15:03;;;;;;;5.80;3.30;;;22.80;72.40;;;;;;10791154;33;20336;-74
2022/09/04 02:21:12;;;;;;;6.60;4.33;;;22.90;72.40;;;;;;10790890;33;20021;-74
2022/09/04 02:27:25;;;;;;;4.95;3.60;;;22.80;72.20;;;;;;10790737;33;20051;-73
2022/09/04 02:33:36;;;;;;;6.15;4.62;;;22.60;72.60;;;;;;10790690;33;20385;-73
2022/09/04 02:39:55;;;;;;;4.85;3.97;;;22.60;72.50;;;;;;10790593;33;20051;-73
2022/09/04 02:46:09;;;;;;;5.83;4.50;;;22.60;72.50;;;;;;10790216;33;20028;-73
2022/09/04 02:52:32;;;;;;;5.03;3.60;;;22.60;72.50;;;;;;10790087;33;20008;-73
2022/09/04 02:58:50;;;;;;;6.20;4.53;;;22.60;72.50;;;;;;10807298;32;20045;-74
2022/09/04 03:05:04;;;;;;;5.83;4.57;;;22.60;72.50;;;;;;10943979;32;20023;-73
2022/09/04 03:11:39;;;;;;;6.10;3.62;;;22.60;72.40;;;;;;10944011;32;20139;-74
2022/09/04 03:18:12;;;;;;;5.20;3.67;;;22.50;72.50;;;;;;10943573;32;20023;-73
2022/09/04 03:24:24;;;;;;;6.40;3.90;;;22.50;72.60;;;;;;10902539;32;20035;-74
2022/09/04 03:30:30;;;;;;;5.12;3.80;;;22.50;72.60;;;;;;10901389;32;20055;-74
2022/09/04 03:36:53;;;;;;;8.00;4.32;;;22.50;72.70;;;;;;10901242;32;20041;-74
2022/09/04 03:43:20;;;;;;;5.62;4.03;;;22.40;72.80;;;;;;10900876;32;20039;-74
2022/09/04 03:49:33;;;;;;;7.68;3.47;;;22.40;72.90;;;;;;10900688;32;20020;-74
2022/09/04 03:55:53;;;;;;;7.45;4.85;;;22.40;73.00;;;;;;10900781;32;20411;-74
2022/09/04 04:02:05;;;;;;;5.40;3.67;;;22.40;73.30;;;;;;10838359;32;20024;-74
2022/09/04 04:08:45;;;;;;;6.57;3.55;;;22.40;73.50;;;;;;10787625;33;20037;-74
2022/09/04 04:15:08;;;;;;;6.32;4.45;;;22.40;73.40;;;;;;10838237;32;20024;-74
2022/09/04 04:21:56;;;;;;;6.95;3.95;;;22.50;73.40;;;;;;10788000;33;20352;-74
2022/09/04 04:28:06;;;;;;;6.18;5.05;;;22.50;73.20;;;;;;10787739;33;20051;-74
2022/09/04 04:34:08;;;;;;;6.18;4.65;;;22.30;73.30;;;;;;10787612;33;20416;-74
2022/09/04 04:40:15;;;;;;;5.18;3.50;;;22.40;73.30;;;;;;10787341;33;20051;-74
2022/09/04 04:47:10;;;;;;;6.30;4.35;;;22.40;73.40;;;;;;10787066;33;20059;-74
2022/09/04 04:53:31;;;;;;;5.72;3.42;;;22.40;73.50;;;;;;10900003;32;20023;-74
2022/09/04 05:00:23;;;;;;;8.00;4.30;;;22.40;73.70;;;;;;10899459;32;20451;-74
2022/09/04 05:06:58;;;;;;;4.35;2.75;;;22.40;73.80;;;;;;10823352;33;20062;-74
2022/09/04 05:13:37;;;;;;;5.75;4.25;;;22.40;73.90;;;;;;10809296;33;20028;-74
2022/09/04 05:19:48;;;;;;;5.37;3.78;;;22.40;73.70;;;;;;10826678;32;20046;-74
2022/09/04 05:26:20;;;;;;;5.47;4.07;;;22.40;73.50;;;;;;10831783;32;20423;-74
2022/09/04 05:32:36;;;;;;;5.68;4.32;;;22.30;73.60;;;;;;10832023;32;20058;-74
2022/09/04 05:38:49;;;;;;;7.93;3.75;;;22.40;73.50;;;;;;10812309;32;20381;-74
2022/09/04 05:45:33;;;;;;;8.52;5.70;;;22.50;73.60;;;;;;10838122;32;20051;-74
2022/09/04 05:52:20;;;;;;;3.12;2.55;;;22.50;73.70;;;;;;10783066;32;20086;-74
2022/09/04 05:58:31;;;;;;;6.25;3.15;;;22.60;73.50;;;;;;10793490;32;20028;-74
2022/09/04 06:04:36;;;;;;;4.45;3.17;;;22.60;73.60;;;;;;10793366;32;20329;-74
2022/09/04 06:11:08;;;;;;;4.10;3.42;;;22.70;73.50;;;;;;10793038;32;20033;-74
2022/09/04 06:17:40;;;;;;;5.55;4.15;;;22.70;73.40;;;;;;10792964;32;20321;-74
2022/09/04 06:24:01;;;;;;;4.78;3.35;;;22.80;73.40;;;;;;10789120;32;20036;-74
2022/09/04 06:30:16;;;;;;;4.15;2.75;;;22.80;73.30;;;;;;10804027;32;20064;-74
2022/09/04 06:36:37;;;;;;;4.40;2.87;;;22.90;73.20;;;;;;10754157;33;20047;-74
2022/09/04 06:42:42;;;;;;;4.93;3.33;;;22.90;73.20;;;;;;10753781;33;20051;-73
2022/09/04 06:48:53;;;;;;;4.22;2.87;;;23.00;73.20;;;;;;10753663;33;20056;-74
2022/09/04 06:55:00;;;;;;;4.32;2.15;;;23.00;73.20;;;;;;10753421;33;20295;-73
2022/09/04 07:01:38;;;;;;;3.97;2.33;;;23.20;73.10;;;;;;10750306;32;20055;-72
2022/09/04 07:15:02;;;;;;;2.92;1.95;;;23.40;72.50;;;;;;10757796;32;20041;-73
2022/09/04 07:21:18;;;;;;;2.08;1.60;;;23.50;72.20;;;;;;10752824;33;20055;-73
2022/09/04 07:27:41;;;;;;;8.52;2.65;;;23.60;72.30;;;;;;10752675;33;20059;-73
2022/09/04 07:34:20;;;;;;;3.05;2.00;;;23.70;72.20;;;;;;10752411;33;20060;-73
2022/09/04 07:40:36;;;;;;;3.42;1.83;;;23.80;71.90;;;;;;10752180;33;20029;-72
2022/09/04 07:46:51;;;;;;;16.75;1.95;;;23.80;71.70;;;;;;10750894;33;20067;-72
2022/09/04 07:53:12;;;;;;;1.58;1.23;;;23.90;71.50;;;;;;10751935;33;20064;-72
2022/09/04 07:59:46;;;;;;;1.40;1.30;;;24.00;71.20;;;;;;10386789;27;11972784;-73
2022/09/04 08:06:21;;;;;;;2.35;1.55;;;24.10;71.00;;;;;;10664491;33;20049;-72
2022/09/04 08:13:08;;;;;;;1.92;1.40;;;24.10;71.10;;;;;;10676307;33;20055;-72
2022/09/04 08:19:28;;;;;;;1.62;1.33;;;24.20;70.90;;;;;;10674956;33;20030;-73
2022/09/04 08:25:31;;;;;;;1.05;0.82;;;24.30;70.90;;;;;;10703979;33;20043;-73
2022/09/04 08:38:58;;;;;;;4.80;2.20;;;24.40;70.60;;;;;;10783319;33;20033;-73
2022/09/04 08:45:19;;;;;;;4.35;2.42;;;24.50;70.30;;;;;;10787323;33;20059;-72
2022/09/04 08:51:56;;;;;;;2.15;1.65;;;24.60;70.00;;;;;;10786983;33;20047;-72
2022/09/04 08:58:35;;;;;;;3.80;1.90;;;24.70;69.60;;;;;;10795440;32;20054;-70
2022/09/04 09:04:40;;;;;;;1.70;0.95;;;24.80;69.30;;;;;;10786614;32;20383;-69
2022/09/04 09:10:53;;;;;;;2.90;1.70;;;24.90;69.20;;;;;;10758681;33;20025;-68
2022/09/04 09:17:15;;;;;;;3.60;2.22;;;25.00;68.90;;;;;;10758466;33;20093;-69
2022/09/04 09:23:41;;;;;;;3.67;1.87;;;25.00;68.80;;;;;;10758032;33;20443;-69
2022/09/04 09:30:09;;;;;;;1.87;1.42;;;25.10;68.40;;;;;;10783606;32;20040;-69
2022/09/04 09:36:22;;;;;;;1.90;1.57;;;25.30;68.20;;;;;;10756801;32;20353;-68
2022/09/04 09:42:48;;;;;;;8.88;2.55;;;25.40;68.00;;;;;;10756443;33;20060;-69
2022/09/04 09:49:16;;;;;;;4.50;2.65;;;25.60;67.60;;;;;;10755514;33;20056;-69
2022/09/04 09:55:27;;;;;;;6.40;2.93;;;25.70;67.10;;;;;;10754842;33;20025;-69
2022/09/04 10:01:29;;;;;;;3.83;2.10;;;25.80;67.00;;;;;;10766058;33;20051;-69
2022/09/04 10:08:00;;;;;;;2.75;1.95;;;25.90;66.70;;;;;;10755187;33;20349;-69
2022/09/04 10:14:36;;;;;;;8.35;3.55;;;26.10;66.10;;;;;;10754401;33;20036;-68
2022/09/04 10:21:26;;;;;;;4.78;2.47;;;26.20;65.20;;;;;;10751144;33;20036;-69
2022/09/04 10:28:05;;;;;;;5.78;2.33;;;26.30;65.10;;;;;;10753874;33;20024;-69
2022/09/04 10:34:56;;;;;;;5.10;2.78;;;26.40;64.60;;;;;;10753974;33;20029;-69
2022/09/04 10:41:14;;;;;;;5.87;2.85;;;26.60;63.90;;;;;;10829922;32;20055;-70
2022/09/04 10:47:48;;;;;;;2.85;2.35;;;26.50;63.70;;;;;;10828668;32;20066;-69
2022/09/04 10:54:29;;;;;;;4.45;1.70;;;26.40;63.90;;;;;;10828458;32;20068;-69
2022/09/04 11:01:12;;;;;;;3.28;1.98;;;26.70;63.70;;;;;;10828263;32;20036;-69
2022/09/04 11:07:53;;;;;;;2.22;1.80;;;26.70;63.70;;;;;;10827894;32;20085;-68
2022/09/04 11:14:05;;;;;;;1.70;1.35;;;26.40;64.30;;;;;;10811296;32;20099;-69
2022/09/04 11:20:32;;;;;;;2.53;1.77;;;26.30;64.60;;;;;;10752179;33;20024;-68
2022/09/04 11:27:00;;;;;;;3.80;1.87;;;26.90;63.30;;;;;;10752719;33;20087;-68
2022/09/04 11:33:11;;;;;;;2.40;1.67;;;27.60;61.90;;;;;;10752661;33;20039;-69
2022/09/04 11:39:52;;;;;;;3.00;1.83;;;28.00;61.20;;;;;;10752490;32;20025;-69
2022/09/04 11:46:30;;;;;;;3.33;2.17;;;28.20;60.30;;;;;;10823415;32;20032;-68
2022/09/04 11:52:36;;;;;;;;;;;28.40;59.70;;;;;;10827025;32;20427;-68
2022/09/04 11:58:59;;;;;;;3.03;1.60;;;28.50;59.20;;;;;;10826151;32;19931;-68
2022/09/04 12:05:16;;;;;;;2.42;1.80;;;28.70;58.40;;;;;;10826674;32;20039;-68
2022/09/04 12:11:37;;;;;;;3.03;1.85;;;28.80;57.90;;;;;;10826079;32;20023;-70
2022/09/04 12:18:12;;;;;;;2.28;1.67;;;28.90;57.50;;;;;;10803324;32;20055;-67
2022/09/04 12:24:49;;;;;;;1.90;1.70;;;28.90;57.30;;;;;;10753073;33;20032;-68
2022/09/04 12:31:28;;;;;;;3.20;2.25;;;28.80;57.60;;;;;;10754692;33;20337;-68
2022/09/04 12:37:45;;;;;;;2.60;1.75;;;28.90;57.00;;;;;;10755802;33;20059;-69
2022/09/04 12:43:53;;;;;;;2.23;1.90;;;28.90;57.00;;;;;;10759772;33;20044;-70
2022/09/04 12:50:36;;;;;;;2.40;1.73;;;28.90;56.60;;;;;;10766281;33;20068;-69
2022/09/04 12:57:06;;;;;;;16.70;2.50;;;28.80;56.60;;;;;;10761384;33;20407;-69
2022/09/04 13:03:37;;;;;;;3.08;1.95;;;28.90;56.30;;;;;;10758695;33;20033;-69
2022/09/04 13:10:11;;;;;;;2.58;1.80;;;28.80;56.00;;;;;;10756664;33;20044;-69
2022/09/04 13:16:37;;;;;;;2.10;1.75;;;28.80;56.20;;;;;;10752430;32;20054;-68
2022/09/04 13:23:03;;;;;;;2.40;1.60;;;28.70;55.80;;;;;;10756022;33;20013;-70
2022/09/04 13:29:11;;;;;;;2.33;1.87;;;28.40;55.90;;;;;;10755941;33;20048;-68
2022/09/04 13:35:13;;;;;;;;;;;28.30;56.30;;;;;;10756189;33;20055;-68
2022/09/04 13:42:02;;;;;;;2.45;1.55;;;28.20;56.20;;;;;;10754994;33;19928;-69
2022/09/04 13:48:18;;;;;;;2.50;1.80;;;28.00;56.10;;;;;;10742381;33;20307;-72
2022/09/04 13:54:38;;;;;;;2.78;2.00;;;27.80;56.40;;;;;;10742405;33;20040;-72
2022/09/04 14:00:48;;;;;;;2.45;1.50;;;27.90;56.60;;;;;;10742030;33;20021;-72
2022/09/04 14:07:06;;;;;;;4.53;2.08;;;28.00;56.80;;;;;;10741948;33;20025;-68
2022/09/04 14:13:30;;;;;;;1.55;1.25;;;28.30;56.40;;;;;;10754795;33;20055;-68
2022/09/04 14:20:00;;;;;;;2.92;1.52;;;28.50;56.30;;;;;;10740993;32;20055;-67
2022/09/04 14:26:26;;;;;;;3.17;1.80;;;28.80;56.30;;;;;;10750259;33;20058;-68
2022/09/04 14:32:41;;;;;;;2.58;1.45;;;28.90;56.20;;;;;;10778849;32;20337;-68
2022/09/04 14:38:55;;;;;;;1.80;1.60;;;29.00;55.90;;;;;;10779638;33;20055;-68
2022/09/04 14:45:00;;;;;;;1.92;1.55;;;29.10;55.90;;;;;;10758000;33;20091;-68
2022/09/04 14:51:10;;;;;;;2.45;1.95;;;29.20;55.50;;;;;;10744066;33;20156;-69
2022/09/04 14:57:28;;;;;;;3.25;1.87;;;29.30;55.20;;;;;;10756087;33;20016;-69
2022/09/04 15:04:00;;;;;;;3.75;1.83;;;29.40;55.20;;;;;;10743481;33;20036;-69
2022/09/04 15:10:27;;;;;;;2.33;1.75;;;29.50;55.10;;;;;;10754107;33;20043;-69
2022/09/04 15:16:43;;;;;;;2.47;1.50;;;29.70;55.20;;;;;;10740192;33;20051;-68
2022/09/04 15:22:52;;;;;;;2.75;1.58;;;29.80;54.90;;;;;;10752882;33;20087;-69
2022/09/04 15:29:15;;;;;;;1.42;1.30;;;29.80;54.70;;;;;;10755083;33;20036;-69
2022/09/04 15:35:24;;;;;;;3.17;1.73;;;29.80;54.50;;;;;;10748039;33;20059;-70
2022/09/04 15:41:38;;;;;;;4.93;2.70;;;29.80;54.20;;;;;;10757810;33;20401;-69
2022/09/04 15:47:42;;;;;;;1.17;1.08;;;29.90;54.30;;;;;;10756393;32;20052;-69
2022/09/04 15:54:09;;;;;;;2.55;1.55;;;29.90;54.20;;;;;;10757465;32;20055;-69
2022/09/04 16:00:21;;;;;;;5.00;1.87;;;30.00;54.20;;;;;;10850982;26;20035;-72
2022/09/04 16:06:41;;;;;;;6.07;2.45;;;30.10;54.30;;;;;;10978663;32;20049;-73
2022/09/04 16:12:52;;;;;;;4.47;2.10;;;30.10;54.40;;;;;;10978814;32;20019;-72
2022/09/04 16:19:06;;;;;;;1.60;1.15;;;29.90;54.70;;;;;;10941066;32;20053;-72
2022/09/04 16:25:18;;;;;;;3.65;1.95;;;29.80;54.80;;;;;;10952039;32;20296;-72
2022/09/04 16:31:51;;;;;;;4.65;2.00;;;29.60;55.10;;;;;;10978573;32;20031;-72
2022/09/04 16:38:08;;;;;;;3.37;1.77;;;30.00;54.50;;;;;;10979705;32;20027;-72
2022/09/04 16:44:29;;;;;;;3.97;1.17;;;31.20;52.50;;;;;;10979090;32;20042;-72
2022/09/04 16:50:50;;;;;;;1.67;1.33;;;32.10;51.00;;;;;;10962769;32;20073;-73
2022/09/04 16:57:14;;;;;;;1.52;1.20;;;32.40;50.60;;;;;;10956012;32;20031;-72
2022/09/04 17:03:25;;;;;;;1.87;1.23;;;31.90;51.10;;;;;;10955823;32;20070;-72
2022/09/04 17:09:39;;;;;;;1.15;0.95;;;31.00;52.90;;;;;;10950037;32;20030;-72
2022/09/04 17:16:21;;;;;;;2.10;1.50;;;31.30;52.90;;;;;;10952652;32;20030;-72
2022/09/04 17:22:33;;;;;;;4.05;1.30;;;30.60;54.00;;;;;;10953947;32;20035;-72
2022/09/04 17:29:15;;;;;;;2.78;1.10;;;29.80;55.10;;;;;;10984862;32;20058;-73
2022/09/04 17:35:30;;;;;;;1.92;1.37;;;29.10;56.20;;;;;;10944322;32;20387;-72
2022/09/04 17:42:18;;;;;;;1.33;1.02;;;28.70;57.00;;;;;;10943728;32;20392;-72
2022/09/04 17:48:31;;;;;;;;;;;28.30;57.70;;;;;;10931277;32;20031;-73
2022/09/04 17:54:47;;;;;;;2.50;1.00;;;28.00;58.10;;;;;;10943203;32;19922;-72
2022/09/04 18:01:07;;;;;;;2.08;1.10;;;27.80;58.60;;;;;;10938592;32;20027;-73
2022/09/04 18:14:13;;;;;;;0.90;0.77;;;27.60;59.30;;;;;;10983447;32;20027;-72
2022/09/04 18:20:56;;;;;;;2.45;1.37;;;27.40;59.40;;;;;;10983710;32;20054;-72
2022/09/04 18:27:11;;;;;;;1.08;0.93;;;27.30;59.80;;;;;;10850386;32;20336;-72
2022/09/04 18:33:28;;;;;;;5.07;2.58;;;27.10;60.40;;;;;;10866945;32;20411;-72
2022/09/04 18:39:39;;;;;;;3.12;1.87;;;27.00;61.00;;;;;;10866641;32;20011;-72
2022/09/04 18:45:52;;;;;;;4.65;1.75;;;26.90;61.10;;;;;;10853843;32;20035;-73
2022/09/04 18:51:59;;;;;;;7.30;2.85;;;26.90;61.40;;;;;;10853788;32;20304;-69
2022/09/04 18:58:07;;;;;;;4.50;1.87;;;26.80;61.90;;;;;;10900320;32;20057;-69
2022/09/04 19:04:21;;;;;;;3.85;1.92;;;26.70;62.10;;;;;;10822618;33;20024;-69
2022/09/04 19:10:26;;;;;;;6.07;2.50;;;26.60;62.00;;;;;;10877841;32;20028;-71
2022/09/04 19:16:32;;;;;;;2.55;1.73;;;26.60;62.10;;;;;;10826398;33;20344;-72
2022/09/04 19:22:57;;;;;;;1.58;1.37;;;26.50;62.20;;;;;;10877033;32;20046;-68
2022/09/04 19:29:18;;;;;;;3.72;1.48;;;26.50;62.50;;;;;;10826101;33;20302;-68
2022/09/04 19:35:51;;;;;;;2.65;1.85;;;26.40;62.60;;;;;;10825769;33;20024;-68
2022/09/04 19:42:01;;;;;;;3.12;1.95;;;26.30;62.80;;;;;;10824930;32;20020;-68
2022/09/04 19:48:36;;;;;;;2.22;1.60;;;26.30;63.10;;;;;;10825437;33;20055;-68
2022/09/04 19:55:18;;;;;;;3.17;2.00;;;26.30;63.20;;;;;;10825424;33;20020;-68
2022/09/04 20:02:04;;;;;;;3.10;1.65;;;26.20;63.40;;;;;;10850791;32;20046;-68
2022/09/04 20:08:30;;;;;;;3.97;2.22;;;26.10;63.50;;;;;;10861503;32;20082;-68
2022/09/04 20:14:43;;;;;;;2.42;1.70;;;26.00;63.70;;;;;;10862854;32;20050;-69
2022/09/04 20:20:53;;;;;;;3.00;2.05;;;26.00;64.00;;;;;;10862836;32;20049;-69
2022/09/04 20:27:31;;;;;;;3.58;1.80;;;26.00;64.20;;;;;;10862573;32;20057;-68
2022/09/04 20:33:37;;;;;;;6.00;2.75;;;25.90;64.30;;;;;;10937732;32;20045;-69
2022/09/04 20:39:53;;;;;;;3.50;2.10;;;25.90;64.40;;;;;;10937884;32;20022;-70
2022/09/04 20:46:01;;;;;;;2.80;2.17;;;25.80;65.00;;;;;;10933531;32;20053;-68
2022/09/04 20:52:07;;;;;;;2.55;1.73;;;25.80;65.40;;;;;;10937232;32;20050;-68
2022/09/04 20:58:41;;;;;;;6.57;2.55;;;25.70;65.90;;;;;;10932394;32;20050;-69
2022/09/04 21:05:00;;;;;;;3.45;2.00;;;25.60;66.00;;;;;;10845489;32;20039;-69
2022/09/04 21:11:13;;;;;;;3.95;2.62;;;25.60;66.00;;;;;;10869380;32;20143;-70
2022/09/04 21:17:46;;;;;;;3.40;2.12;;;25.50;66.40;;;;;;10864925;32;20054;-69
2022/09/04 21:24:22;;;;;;;2.97;2.20;;;25.40;67.10;;;;;;10868870;32;20054;-68
2022/09/04 21:31:07;;;;;;;7.28;3.00;;;25.30;67.70;;;;;;10868768;32;20061;-68
2022/09/04 21:37:40;;;;;;;3.72;2.67;;;25.30;67.70;;;;;;10857885;32;20024;-68
2022/09/04 21:43:44;;;;;;;3.05;1.95;;;25.30;68.10;;;;;;10829153;33;20054;-68
2022/09/04 21:50:03;;;;;;;4.18;2.70;;;25.20;68.40;;;;;;10879622;32;20047;-68
2022/09/04 21:56:29;;;;;;;5.47;2.93;;;25.20;68.30;;;;;;10879774;32;20031;-70
2022/09/04 22:03:05;;;;;;;4.45;2.92;;;25.10;68.50;;;;;;10827810;32;20054;-68
2022/09/04 22:09:55;;;;;;;4.22;2.75;;;25.10;68.50;;;;;;10828289;33;20422;-69
2022/09/04 22:16:34;;;;;;;4.12;2.78;;;25.00;68.40;;;;;;10828298;33;20054;-68
2022/09/04 22:22:51;;;;;;;6.15;2.92;;;24.90;68.50;;;;;;10828714;33;20424;-69
2022/09/04 22:29:06;;;;;;;5.57;3.30;;;24.90;68.60;;;;;;10827892;33;20063;-71
2022/09/04 22:35:22;;;;;;;4.43;3.20;;;24.90;68.80;;;;;;10827686;33;20020;-72
2022/09/04 22:41:33;;;;;;;6.20;4.30;;;24.90;68.80;;;;;;10874564;32;20023;-72
2022/09/04 22:48:13;;;;;;;7.57;3.83;;;24.80;68.90;;;;;;10827303;33;20031;-73
2022/09/04 22:54:36;;;;;;;5.85;2.58;;;24.80;68.90;;;;;;10827118;33;20043;-72
2022/09/04 23:01:14;;;;;;;8.65;3.58;;;24.80;69.20;;;;;;10827065;33;20021;-72
2022/09/04 23:07:34;;;;;;;4.07;2.65;;;24.70;69.50;;;;;;10816608;33;20068;-72
2022/09/04 23:14:08;;;;;;;3.55;2.45;;;24.70;69.50;;;;;;10790013;33;20082;-72
2022/09/04 23:20:28;;;;;;;4.97;3.15;;;24.70;69.50;;;;;;10789761;33;20046;-72
2022/09/04 23:26:49;;;;;;;6.80;3.50;;;24.70;69.90;;;;;;10789401;33;20032;-72
2022/09/04 23:33:13;;;;;;;5.10;2.83;;;24.60;69.90;;;;;;10789209;33;20028;-72
2022/09/04 23:39:39;;;;;;;6.65;3.62;;;24.60;70.00;;;;;;10785160;33;20051;-73
2022/09/04 23:46:07;;;;;;;5.12;3.60;;;24.40;70.60;;;;;;10840531;32;20058;-72
2022/09/04 23:52:22;;;;;;;6.05;3.83;;;24.30;70.80;;;;;;10788736;33;20032;-72
